createdAt,value
2017-03-20T00:00:24.473Z,99.99
2017-03-20T00:01:39.111Z,99.99
2017-03-20T00:02:24.515Z,99.99
2017-03-20T00:03:24.536Z,99.99
2017-03-20T00:04:24.558Z,99.99
2017-03-20T00:05:24.582Z,99.99
2017-03-20T00:06:24.599Z,99.99
2017-03-20T00:07:24.316Z,99.99
2017-03-20T00:08:24.643Z,99.99
2017-03-20T00:09:24.669Z,99.99
2017-03-20T00:10:24.682Z,99.99
2017-03-20T00:11:24.700Z,99.99
2017-03-20T00:13:24.741Z,99.99
2017-03-20T00:14:24.764Z,99.99
2017-03-20T00:15:24.782Z,99.99
2017-03-20T00:16:24.805Z,99.99
2017-03-20T00:17:24.821Z,99.99
2017-03-20T00:18:24.845Z,99.99
2017-03-20T00:19:24.866Z,99.99
2017-03-20T00:20:24.885Z,99.99
2017-03-20T00:21:24.904Z,99.99
2017-03-20T00:22:24.924Z,99.99
2017-03-20T00:23:24.947Z,99.99
2017-03-20T00:24:25.007Z,99.99
2017-03-20T00:25:24.985Z,99.99
2017-03-20T00:26:25.007Z,99.99
2017-03-20T00:27:25.027Z,99.99
2017-03-20T00:29:25.070Z,99.99
2017-03-20T00:30:25.090Z,99.99
2017-03-20T00:31:25.111Z,99.99
2017-03-20T00:32:25.132Z,99.99
2017-03-20T00:33:39.765Z,99.99
2017-03-20T00:34:25.172Z,99.99
2017-03-20T00:35:24.888Z,99.99
2017-03-20T00:36:25.212Z,99.99
2017-03-20T00:37:25.232Z,99.99
2017-03-20T00:38:25.254Z,99.99
2017-03-20T00:39:24.972Z,99.99
2017-03-20T00:40:24.992Z,99.99
2017-03-20T00:41:25.353Z,99.99
2017-03-20T00:42:25.334Z,99.99
2017-03-20T00:44:25.379Z,99.99
2017-03-20T00:46:25.420Z,99.99
2017-03-20T00:47:25.437Z,99.99
2017-03-20T00:48:25.156Z,99.99
2017-03-20T00:49:40.095Z,99.99
2017-03-20T00:50:25.498Z,99.99
2017-03-20T00:51:25.518Z,99.99
2017-03-20T00:52:25.541Z,99.99
2017-03-20T00:53:25.259Z,99.99
2017-03-20T00:54:25.584Z,99.99
2017-03-20T00:55:25.601Z,99.99
2017-03-20T00:56:25.320Z,99.99
2017-03-20T00:57:25.641Z,99.99
2017-03-20T00:58:25.664Z,99.99
2017-03-20T00:59:25.686Z,99.99
2017-03-20T01:00:25.708Z,99.99
2017-03-20T01:01:25.724Z,99.99
2017-03-20T01:02:25.748Z,99.99
2017-03-20T01:03:25.768Z,99.99
2017-03-20T01:04:25.793Z,99.99
2017-03-20T01:05:40.423Z,99.99
2017-03-20T01:06:25.827Z,99.99
2017-03-20T01:07:25.848Z,99.99
2017-03-20T01:08:25.870Z,99.99
2017-03-20T01:09:25.892Z,99.99
2017-03-20T01:10:25.944Z,99.99
2017-03-20T01:11:25.930Z,99.99
2017-03-20T01:12:25.952Z,99.99
2017-03-20T01:13:25.973Z,99.99
2017-03-20T01:14:25.999Z,99.99
2017-03-20T01:15:26.011Z,99.99
2017-03-20T01:16:26.034Z,99.99
2017-03-20T01:17:26.052Z,99.99
2017-03-20T01:18:26.076Z,99.99
2017-03-20T01:19:26.100Z,99.99
2017-03-20T01:20:26.116Z,99.99
2017-03-20T01:21:40.753Z,99.99
2017-03-20T01:22:26.159Z,99.99
2017-03-20T01:23:26.179Z,99.99
2017-03-20T01:24:26.199Z,99.99
2017-03-20T01:25:26.222Z,99.99
2017-03-20T01:26:26.248Z,99.99
2017-03-20T01:27:26.261Z,99.99
2017-03-20T01:28:25.978Z,99.99
2017-03-20T01:29:26.301Z,99.99
2017-03-20T01:30:26.323Z,99.99
2017-03-20T01:31:26.341Z,99.99
2017-03-20T01:32:26.363Z,99.99
2017-03-20T01:33:26.385Z,99.99
2017-03-20T01:34:26.404Z,99.99
2017-03-20T01:35:26.433Z,99.99
2017-03-20T01:36:41.062Z,99.99
2017-03-20T01:37:26.467Z,99.99
2017-03-20T01:38:26.488Z,99.99
2017-03-20T01:39:26.507Z,99.99
2017-03-20T01:40:26.529Z,99.99
2017-03-20T01:41:26.548Z,99.99
2017-03-20T01:42:26.570Z,99.99
2017-03-20T01:44:26.613Z,99.99
2017-03-20T01:45:26.630Z,99.99
2017-03-20T01:46:26.652Z,99.99
2017-03-20T01:47:26.672Z,99.99
2017-03-20T01:48:26.393Z,99.99
2017-03-20T01:50:26.433Z,99.99
2017-03-20T01:51:26.450Z,99.99
2017-03-20T01:52:26.474Z,99.99
2017-03-20T01:53:26.493Z,99.99
2017-03-20T01:54:26.513Z,99.99
2017-03-20T01:55:26.535Z,99.99
2017-03-20T01:56:26.555Z,99.99
2017-03-20T01:57:26.575Z,99.99
2017-03-20T01:58:26.899Z,99.99
2017-03-20T01:59:26.922Z,99.99
2017-03-20T02:00:26.940Z,99.99
2017-03-20T02:01:26.962Z,99.99
2017-03-20T02:02:26.982Z,99.99
2017-03-20T02:03:27.003Z,99.99
2017-03-20T02:06:27.067Z,99.99
2017-03-20T02:07:27.085Z,99.99
2017-03-20T02:08:41.722Z,99.99
2017-03-20T02:09:27.126Z,99.99
2017-03-20T02:10:27.145Z,99.99
2017-03-20T02:11:26.866Z,99.99
2017-03-20T02:12:26.885Z,99.99
2017-03-20T02:13:27.212Z,99.99
2017-03-20T02:14:27.231Z,99.99
2017-03-20T02:15:27.248Z,99.99
2017-03-20T02:16:27.274Z,99.99
2017-03-20T02:17:27.290Z,99.99
2017-03-20T02:18:27.311Z,99.99
2017-03-20T02:19:27.333Z,99.99
2017-03-20T02:20:27.356Z,99.99
2017-03-20T02:21:27.379Z,99.99
2017-03-20T02:22:27.395Z,99.99
2017-03-20T02:23:27.418Z,99.99
2017-03-20T02:24:42.051Z,99.99
2017-03-20T02:25:27.459Z,99.99
2017-03-20T02:26:27.478Z,99.99
2017-03-20T02:27:27.198Z,99.99
2017-03-20T02:28:27.520Z,99.99
2017-03-20T02:29:27.238Z,99.99
2017-03-20T02:30:27.559Z,99.99
2017-03-20T02:31:27.581Z,99.99
2017-03-20T02:32:27.609Z,99.99
2017-03-20T02:33:27.622Z,99.99
2017-03-20T02:34:27.648Z,99.99
2017-03-20T02:35:27.663Z,99.99
2017-03-20T02:36:27.700Z,99.99
2017-03-20T02:37:27.704Z,99.99
2017-03-20T02:38:27.728Z,99.99
2017-03-20T02:39:27.747Z,99.99
2017-03-20T02:40:42.382Z,99.99
2017-03-20T02:41:27.786Z,99.99
2017-03-20T02:42:27.812Z,99.99
2017-03-20T02:43:27.835Z,99.99
2017-03-20T02:44:27.850Z,99.99
2017-03-20T02:45:27.873Z,99.99
2017-03-20T02:47:27.912Z,99.99
2017-03-20T02:49:27.955Z,99.99
2017-03-20T02:50:27.974Z,99.99
2017-03-20T02:51:27.993Z,99.99
2017-03-20T02:52:28.017Z,99.99
2017-03-20T02:53:28.061Z,99.99
2017-03-20T02:54:28.059Z,99.99
2017-03-20T02:56:42.715Z,99.99
2017-03-20T02:57:28.120Z,99.99
2017-03-20T02:58:28.145Z,99.99
2017-03-20T02:59:28.160Z,99.99
2017-03-20T03:00:28.182Z,99.99
2017-03-20T03:01:28.203Z,99.99
2017-03-20T03:02:28.223Z,99.99
2017-03-20T03:03:28.245Z,99.99
2017-03-20T03:04:28.266Z,99.99
2017-03-20T03:05:28.285Z,99.99
2017-03-20T03:06:28.306Z,99.99
2017-03-20T03:07:28.356Z,99.99
2017-03-20T03:08:28.349Z,99.99
2017-03-20T03:09:28.370Z,99.99
2017-03-20T03:10:28.397Z,99.99
2017-03-20T03:11:43.026Z,99.99
2017-03-20T03:12:28.435Z,99.99
2017-03-20T03:13:28.453Z,99.99
2017-03-20T03:14:28.475Z,99.99
2017-03-20T03:15:28.495Z,99.99
2017-03-20T03:16:28.211Z,99.99
2017-03-20T03:17:28.537Z,99.99
2017-03-20T03:18:28.559Z,99.99
2017-03-20T03:19:28.579Z,99.99
2017-03-20T03:20:28.596Z,99.99
2017-03-20T03:21:28.652Z,99.99
2017-03-20T03:22:28.642Z,99.99
2017-03-20T03:23:28.356Z,99.99
2017-03-20T03:24:28.682Z,99.99
2017-03-20T03:25:28.701Z,99.99
2017-03-20T03:26:28.722Z,99.99
2017-03-20T03:27:28.743Z,99.99
2017-03-20T03:28:28.764Z,99.99
2017-03-20T03:29:28.480Z,99.99
2017-03-20T03:30:28.500Z,99.99
2017-03-20T03:31:28.824Z,99.99
2017-03-20T03:32:28.846Z,99.99
2017-03-20T03:34:28.889Z,99.99
2017-03-20T03:35:28.607Z,99.99
2017-03-20T03:36:28.927Z,99.99
2017-03-20T03:37:28.950Z,99.99
2017-03-20T03:40:29.011Z,99.99
2017-03-20T03:41:29.033Z,99.99
2017-03-20T03:42:29.057Z,99.99
2017-03-20T03:43:43.690Z,99.99
2017-03-20T03:44:29.095Z,99.99
2017-03-20T03:45:29.119Z,99.99
2017-03-20T03:46:29.135Z,99.99
2017-03-20T03:47:29.154Z,99.99
2017-03-20T03:48:29.178Z,99.99
2017-03-20T03:49:29.199Z,99.99
2017-03-20T03:50:29.217Z,99.99
2017-03-20T03:51:29.239Z,99.99
2017-03-20T03:52:29.260Z,99.99
2017-03-20T03:53:29.281Z,99.99
2017-03-20T03:55:29.325Z,99.99
2017-03-20T03:57:29.364Z,99.99
2017-03-20T03:58:29.078Z,99.99
2017-03-20T03:59:44.021Z,99.99
2017-03-20T04:00:29.122Z,99.99
2017-03-20T04:01:29.447Z,99.99
2017-03-20T04:02:29.164Z,99.99
2017-03-20T04:03:29.490Z,99.99
2017-03-20T04:04:29.519Z,99.99
2017-03-20T04:05:29.225Z,99.99
2017-03-20T04:06:29.550Z,99.99
2017-03-20T04:08:29.593Z,99.99
2017-03-20T04:09:29.616Z,99.99
2017-03-20T04:10:29.632Z,99.99
2017-03-20T04:11:29.350Z,99.99
2017-03-20T04:12:29.674Z,99.99
2017-03-20T04:13:29.697Z,99.99
2017-03-20T04:14:29.718Z,99.99
2017-03-20T04:15:44.351Z,99.99
2017-03-20T04:16:29.759Z,99.99
2017-03-20T04:17:29.777Z,99.99
2017-03-20T04:18:29.800Z,99.99
2017-03-20T04:19:29.515Z,99.99
2017-03-20T04:20:29.840Z,99.99
2017-03-20T04:22:29.880Z,99.99
2017-03-20T04:23:29.905Z,99.99
2017-03-20T04:24:29.925Z,99.99
2017-03-20T04:25:29.645Z,99.99
2017-03-20T04:26:29.961Z,99.99
2017-03-20T04:27:29.987Z,99.99
2017-03-20T04:29:30.028Z,99.99
2017-03-20T04:30:30.046Z,99.99
2017-03-20T04:31:44.684Z,99.99
2017-03-20T04:32:30.088Z,99.99
2017-03-20T04:33:30.111Z,99.99
2017-03-20T04:34:30.129Z,99.99
2017-03-20T04:35:30.150Z,99.99
2017-03-20T04:36:30.172Z,99.99
2017-03-20T04:37:30.193Z,99.99
2017-03-20T04:38:30.213Z,99.99
2017-03-20T04:39:30.236Z,99.99
2017-03-20T04:40:30.254Z,99.99
2017-03-20T04:41:30.274Z,99.99
2017-03-20T04:42:30.295Z,99.99
2017-03-20T04:43:30.326Z,99.99
2017-03-20T04:44:30.338Z,99.99
2017-03-20T04:45:30.356Z,99.99
2017-03-20T04:46:44.995Z,99.99
2017-03-20T04:47:30.406Z,99.99
2017-03-20T04:48:30.421Z,99.99
2017-03-20T04:49:30.443Z,99.99
2017-03-20T04:50:30.463Z,99.99
2017-03-20T04:51:30.488Z,99.99
2017-03-20T04:52:30.503Z,99.99
2017-03-20T04:53:30.528Z,99.99
2017-03-20T04:54:30.547Z,99.99
2017-03-20T04:55:30.567Z,99.99
2017-03-20T04:56:30.592Z,99.99
2017-03-20T04:57:30.616Z,99.99
2017-03-20T04:58:30.627Z,99.99
2017-03-20T04:59:30.649Z,99.99
2017-03-20T05:00:30.670Z,99.99
2017-03-20T05:01:30.425Z,99.99
2017-03-20T05:02:30.711Z,99.99
2017-03-20T05:03:30.741Z,99.99
2017-03-20T05:04:30.753Z,99.99
2017-03-20T05:05:30.776Z,99.99
2017-03-20T05:06:30.792Z,99.99
2017-03-20T05:07:30.817Z,99.99
2017-03-20T05:08:30.874Z,99.99
2017-03-20T05:09:30.859Z,99.99
2017-03-20T05:10:30.877Z,99.99
2017-03-20T05:11:30.897Z,99.99
2017-03-20T05:14:30.963Z,99.99
2017-03-20T05:15:30.985Z,99.99
2017-03-20T05:17:31.023Z,99.99
2017-03-20T05:18:45.661Z,99.99
2017-03-20T05:19:31.065Z,99.99
2017-03-20T05:20:31.090Z,99.99
2017-03-20T05:21:31.106Z,99.99
2017-03-20T05:22:31.127Z,99.99
2017-03-20T05:23:31.150Z,99.99
2017-03-20T05:24:31.173Z,99.99
2017-03-20T05:25:31.189Z,99.99
2017-03-20T05:26:30.908Z,99.99
2017-03-20T05:27:31.234Z,99.99
2017-03-20T05:28:31.254Z,99.99
2017-03-20T05:29:31.273Z,99.99
2017-03-20T05:30:31.294Z,99.99
2017-03-20T05:31:31.318Z,99.99
2017-03-20T05:32:31.339Z,99.99
2017-03-20T05:33:31.056Z,99.99
2017-03-20T05:34:45.997Z,99.99
2017-03-20T05:35:31.400Z,99.99
2017-03-20T05:36:31.421Z,99.99
2017-03-20T05:37:31.447Z,99.99
2017-03-20T05:38:31.465Z,99.99
2017-03-20T05:39:31.483Z,99.99
2017-03-20T05:40:31.506Z,99.99
2017-03-20T05:41:31.525Z,99.99
2017-03-20T05:42:31.548Z,99.99
2017-03-20T05:43:31.567Z,99.99
2017-03-20T05:44:31.588Z,99.99
2017-03-20T05:45:31.608Z,99.99
2017-03-20T05:46:31.629Z,99.99
2017-03-20T05:48:31.672Z,99.99
2017-03-20T05:49:31.698Z,99.99
2017-03-20T05:50:46.330Z,99.99
2017-03-20T05:51:31.735Z,99.99
2017-03-20T05:52:31.763Z,99.99
2017-03-20T05:53:31.780Z,99.99
2017-03-20T05:54:31.797Z,99.99
2017-03-20T05:55:31.819Z,99.99
2017-03-20T05:56:31.842Z,99.99
2017-03-20T05:57:31.861Z,99.99
2017-03-20T05:58:31.892Z,99.99
2017-03-20T05:59:31.905Z,99.99
2017-03-20T06:00:31.924Z,99.99
2017-03-20T06:01:31.949Z,99.99
2017-03-20T06:02:31.966Z,99.99
2017-03-20T06:03:31.989Z,99.99
2017-03-20T06:04:32.007Z,99.99
2017-03-20T06:05:32.029Z,99.99
2017-03-20T06:06:46.667Z,99.99
2017-03-20T06:07:32.073Z,99.99
2017-03-20T06:08:32.095Z,99.99
2017-03-20T06:09:32.115Z,99.99
2017-03-20T06:10:32.136Z,99.99
2017-03-20T06:11:32.160Z,99.99
2017-03-20T06:12:32.176Z,99.99
2017-03-20T06:13:32.201Z,99.99
2017-03-20T06:14:32.220Z,99.99
2017-03-20T06:15:32.240Z,99.99
2017-03-20T06:16:32.259Z,99.99
2017-03-20T06:18:32.305Z,99.99
2017-03-20T06:20:32.347Z,99.99
2017-03-20T06:21:46.984Z,99.99
2017-03-20T06:22:32.390Z,99.99
2017-03-20T06:23:32.412Z,99.99
2017-03-20T06:24:32.431Z,99.99
2017-03-20T06:25:32.456Z,99.99
2017-03-20T06:26:32.473Z,99.99
2017-03-20T06:28:32.521Z,99.99
2017-03-20T06:29:32.536Z,99.99
2017-03-20T06:30:32.558Z,99.99
2017-03-20T06:31:32.580Z,99.99
2017-03-20T06:32:32.602Z,99.99
2017-03-20T06:33:32.623Z,99.99
2017-03-20T06:35:32.665Z,99.99
2017-03-20T06:36:32.685Z,99.99
2017-03-20T06:37:32.707Z,99.99
2017-03-20T06:38:32.730Z,99.99
2017-03-20T06:39:32.750Z,99.99
2017-03-20T06:40:32.468Z,99.99
2017-03-20T06:41:32.792Z,99.99
2017-03-20T06:42:32.812Z,99.99
2017-03-20T06:43:32.833Z,99.99
2017-03-20T06:44:32.856Z,99.99
2017-03-20T06:45:32.875Z,99.99
2017-03-20T06:46:32.896Z,99.99
2017-03-20T06:47:32.915Z,99.99
2017-03-20T06:48:32.941Z,99.99
2017-03-20T06:50:32.984Z,99.99
2017-03-20T06:51:33.000Z,99.99
2017-03-20T06:52:33.024Z,99.99
2017-03-20T06:53:47.661Z,99.99
2017-03-20T06:54:33.066Z,99.99
2017-03-20T06:55:33.091Z,99.99
2017-03-20T06:56:33.104Z,99.99
2017-03-20T06:57:33.128Z,99.99
2017-03-20T06:58:33.148Z,99.99
2017-03-20T06:59:33.171Z,99.99
2017-03-20T07:00:33.193Z,99.99
2017-03-20T07:01:33.214Z,99.99
2017-03-20T07:02:33.234Z,99.99
2017-03-20T07:03:33.261Z,99.99
2017-03-20T07:04:33.277Z,99.99
2017-03-20T07:05:32.995Z,99.99
2017-03-20T07:06:33.017Z,99.99
2017-03-20T07:07:33.040Z,99.99
2017-03-20T07:08:33.060Z,99.99
2017-03-20T07:09:48.000Z,99.99
2017-03-20T07:10:33.404Z,99.99
2017-03-20T07:11:33.425Z,99.99
2017-03-20T07:12:33.144Z,99.99
2017-03-20T07:13:33.771Z,99.99
2017-03-20T07:14:33.490Z,99.99
2017-03-20T07:15:33.510Z,99.99
2017-03-20T07:16:33.229Z,99.99
2017-03-20T07:17:33.553Z,99.99
2017-03-20T07:18:33.580Z,99.99
2017-03-20T07:19:33.597Z,99.99
2017-03-20T07:20:33.617Z,99.99
2017-03-20T07:21:33.638Z,99.99
2017-03-20T07:22:33.662Z,99.99
2017-03-20T07:23:33.683Z,99.99
2017-03-20T07:24:33.706Z,99.99
2017-03-20T07:25:48.340Z,99.99
2017-03-20T07:26:33.744Z,99.99
2017-03-20T07:27:33.767Z,99.99
2017-03-20T07:28:33.485Z,99.99
2017-03-20T07:29:33.508Z,99.99
2017-03-20T07:30:33.527Z,99.99
2017-03-20T07:31:33.857Z,99.99
2017-03-20T07:32:33.874Z,99.99
2017-03-20T07:33:33.897Z,99.99
2017-03-20T07:34:33.611Z,99.99
2017-03-20T07:35:33.936Z,99.99
2017-03-20T07:36:33.957Z,99.99
2017-03-20T07:38:33.700Z,99.99
2017-03-20T07:39:34.022Z,99.99
2017-03-20T07:40:34.043Z,99.99
2017-03-20T07:41:48.681Z,99.99
2017-03-20T07:42:34.437Z,99.99
2017-03-20T07:43:34.111Z,99.99
2017-03-20T07:44:34.128Z,99.99
2017-03-20T07:45:34.151Z,99.99
2017-03-20T07:46:34.171Z,99.99
2017-03-20T07:47:34.192Z,99.99
2017-03-20T07:48:34.214Z,99.99
2017-03-20T07:49:34.238Z,99.99
2017-03-20T07:50:33.954Z,99.99
2017-03-20T07:51:34.278Z,99.99
2017-03-20T07:52:34.305Z,99.99
2017-03-20T07:53:34.326Z,99.99
2017-03-20T07:54:34.039Z,99.99
2017-03-20T07:55:34.364Z,99.99
2017-03-20T07:56:49.004Z,99.99
2017-03-20T07:57:34.108Z,99.99
2017-03-20T07:58:34.128Z,99.99
2017-03-20T07:59:34.456Z,99.99
2017-03-20T08:00:34.170Z,99.99
2017-03-20T08:01:34.190Z,99.99
2017-03-20T08:02:34.516Z,99.99
2017-03-20T08:03:34.234Z,99.99
2017-03-20T08:04:34.558Z,99.99
2017-03-20T08:05:34.580Z,99.99
2017-03-20T08:06:34.298Z,99.99
2017-03-20T08:07:34.622Z,99.99
2017-03-20T08:08:34.646Z,99.99
2017-03-20T08:09:34.666Z,99.99
2017-03-20T08:10:34.691Z,99.99
2017-03-20T08:11:34.707Z,99.99
2017-03-20T08:12:34.740Z,99.99
2017-03-20T08:13:34.755Z,99.99
2017-03-20T08:14:34.774Z,99.99
2017-03-20T08:15:34.491Z,99.99
2017-03-20T08:16:34.531Z,99.99
2017-03-20T08:17:34.838Z,99.99
2017-03-20T08:18:34.759Z,99.99
2017-03-20T08:19:34.883Z,99.99
2017-03-20T08:20:34.901Z,99.99
2017-03-20T08:21:34.922Z,99.99
2017-03-20T08:22:34.960Z,99.99
2017-03-20T08:23:34.969Z,99.99
2017-03-20T08:24:34.988Z,99.99
2017-03-20T08:26:35.030Z,99.99
2017-03-20T08:27:35.052Z,99.99
2017-03-20T08:28:49.691Z,99.99
2017-03-20T08:29:35.096Z,99.99
2017-03-20T08:30:35.118Z,99.99
2017-03-20T08:31:35.139Z,99.99
2017-03-20T08:32:35.161Z,99.99
2017-03-20T08:33:35.184Z,99.99
2017-03-20T08:34:35.206Z,99.99
2017-03-20T08:35:35.228Z,99.99
2017-03-20T08:36:35.249Z,99.99
2017-03-20T08:37:35.271Z,99.99
2017-03-20T08:38:35.292Z,99.99
2017-03-20T08:39:35.313Z,99.99
2017-03-20T08:40:35.333Z,99.99
2017-03-20T08:41:35.357Z,99.99
2017-03-20T08:42:35.379Z,99.99
2017-03-20T08:43:35.401Z,99.99
2017-03-20T08:44:50.038Z,99.99
2017-03-20T08:45:35.446Z,99.99
2017-03-20T08:46:35.464Z,99.99
2017-03-20T08:47:35.490Z,99.99
2017-03-20T08:48:35.510Z,99.99
2017-03-20T08:49:35.531Z,99.99
2017-03-20T08:50:35.554Z,99.99
2017-03-20T08:51:35.574Z,99.99
2017-03-20T08:52:35.596Z,99.99
2017-03-20T08:53:35.621Z,99.99
2017-03-20T08:54:35.640Z,99.99
2017-03-20T08:56:35.689Z,99.99
2017-03-20T08:57:35.713Z,99.99
2017-03-20T08:58:35.729Z,99.99
2017-03-20T08:59:35.752Z,99.99
2017-03-20T09:00:50.390Z,99.99
2017-03-20T09:01:35.795Z,99.99
2017-03-20T09:02:35.815Z,99.99
2017-03-20T09:03:35.844Z,99.99
2017-03-20T09:04:35.859Z,99.99
2017-03-20T09:05:35.880Z,99.99
2017-03-20T09:06:35.903Z,99.99
2017-03-20T09:07:35.628Z,99.99
2017-03-20T09:08:35.645Z,99.99
2017-03-20T09:09:35.666Z,99.99
2017-03-20T09:10:35.989Z,99.99
2017-03-20T09:11:36.012Z,99.99
2017-03-20T09:12:36.040Z,99.99
2017-03-20T09:13:36.065Z,99.99
2017-03-20T09:14:36.079Z,99.99
2017-03-20T09:15:35.799Z,99.99
2017-03-20T09:16:50.741Z,99.99
2017-03-20T09:17:36.149Z,99.99
2017-03-20T09:18:36.171Z,99.99
2017-03-20T09:19:36.193Z,99.99
2017-03-20T09:20:36.215Z,99.99
2017-03-20T09:21:36.236Z,99.99
2017-03-20T09:22:36.260Z,99.99
2017-03-20T09:23:35.977Z,99.99
2017-03-20T09:24:36.000Z,99.99
2017-03-20T09:25:36.325Z,99.99
2017-03-20T09:26:36.346Z,99.99
2017-03-20T09:27:36.371Z,99.99
2017-03-20T09:30:36.439Z,99.99
2017-03-20T09:31:51.077Z,99.99
2017-03-20T09:32:36.485Z,99.99
2017-03-20T09:33:36.508Z,99.99
2017-03-20T09:34:36.527Z,99.99
2017-03-20T09:35:36.549Z,99.99
2017-03-20T09:36:36.574Z,99.99
2017-03-20T09:37:36.293Z,99.99
2017-03-20T09:38:36.617Z,99.99
2017-03-20T09:39:36.640Z,99.99
2017-03-20T09:40:36.659Z,99.99
2017-03-20T09:41:36.683Z,99.99
2017-03-20T09:43:36.739Z,99.99
2017-03-20T09:44:36.751Z,99.99
2017-03-20T09:45:36.774Z,99.99
2017-03-20T09:46:36.795Z,99.99
2017-03-20T09:47:36.842Z,99.99
2017-03-20T09:48:36.841Z,99.99
2017-03-20T09:49:36.860Z,99.99
2017-03-20T09:50:36.883Z,99.99
2017-03-20T09:51:36.905Z,99.99
2017-03-20T09:52:36.973Z,99.99
2017-03-20T09:53:36.646Z,99.99
2017-03-20T09:54:36.977Z,99.99
2017-03-20T09:55:36.994Z,99.99
2017-03-20T09:56:36.714Z,99.99
2017-03-20T09:57:37.041Z,99.99
2017-03-20T09:59:36.782Z,99.99
2017-03-20T10:00:37.109Z,99.99
2017-03-20T10:01:37.129Z,99.99
2017-03-20T10:02:37.149Z,99.99
2017-03-20T10:03:51.788Z,99.99
2017-03-20T10:04:37.199Z,99.99
2017-03-20T10:05:37.216Z,99.99
2017-03-20T10:06:37.239Z,99.99
2017-03-20T10:07:36.960Z,99.99
2017-03-20T10:08:37.286Z,99.99
2017-03-20T10:09:37.308Z,99.99
2017-03-20T10:10:37.325Z,99.99
2017-03-20T10:11:37.350Z,99.99
2017-03-20T10:12:37.373Z,99.99
2017-03-20T10:13:37.404Z,99.99
2017-03-20T10:14:37.114Z,99.99
2017-03-20T10:15:37.137Z,99.99
2017-03-20T10:17:37.485Z,99.99
2017-03-20T10:18:37.508Z,99.99
2017-03-20T10:19:52.145Z,99.99
2017-03-20T10:20:37.259Z,99.99
2017-03-20T10:21:37.573Z,99.99
2017-03-20T10:22:37.601Z,99.99
2017-03-20T10:23:37.620Z,99.99
2017-03-20T10:25:37.662Z,99.99
2017-03-20T10:26:37.686Z,99.99
2017-03-20T10:27:37.711Z,99.99
2017-03-20T10:28:37.732Z,99.99
2017-03-20T10:29:37.752Z,99.99
2017-03-20T10:30:37.784Z,99.99
2017-03-20T10:31:37.495Z,99.99
2017-03-20T10:32:37.820Z,99.99
2017-03-20T10:33:37.845Z,99.99
2017-03-20T10:34:37.865Z,99.99
2017-03-20T10:35:52.503Z,99.99
2017-03-20T10:36:37.909Z,99.99
2017-03-20T10:37:37.935Z,99.99
2017-03-20T10:38:37.959Z,99.99
2017-03-20T10:39:37.978Z,99.99
2017-03-20T10:40:38.010Z,99.99
2017-03-20T10:41:37.718Z,99.99
2017-03-20T10:42:38.045Z,99.99
2017-03-20T10:43:38.067Z,99.99
2017-03-20T10:44:38.088Z,99.99
2017-03-20T10:45:38.111Z,99.99
2017-03-20T10:48:38.178Z,99.99
2017-03-20T10:49:38.200Z,99.99
2017-03-20T10:50:38.220Z,99.99
2017-03-20T10:51:52.860Z,99.99
2017-03-20T10:52:38.268Z,99.99
2017-03-20T10:53:38.290Z,99.99
2017-03-20T10:54:38.020Z,99.99
2017-03-20T10:55:38.335Z,99.99
2017-03-20T10:56:38.355Z,99.99
2017-03-20T10:57:38.380Z,99.99
2017-03-20T10:58:38.402Z,99.85
2017-03-20T10:59:38.424Z,99.99
2017-03-20T11:00:38.448Z,99.99
2017-03-20T11:01:38.469Z,99.99
2017-03-20T11:02:38.492Z,99.66
2017-03-20T11:03:38.514Z,99.52
2017-03-20T11:04:38.539Z,99.14
2017-03-20T11:05:38.560Z,98.94
2017-03-20T11:06:53.199Z,98.57
2017-03-20T11:07:38.606Z,99.43
2017-03-20T11:08:53.244Z,98.85
2017-03-20T11:09:38.651Z,99.04
2017-03-20T11:10:38.672Z,98.66
2017-03-20T11:11:38.696Z,98.23
2017-03-20T11:12:38.721Z,97.23
2017-03-20T11:13:38.743Z,97.28
2017-03-20T11:14:38.765Z,98.8
2017-03-20T11:15:38.787Z,98.8
2017-03-20T11:16:38.811Z,98.33
2017-03-20T11:17:38.838Z,97.75
2017-03-20T11:18:38.859Z,97.85
2017-03-20T11:20:38.902Z,97.47
2017-03-20T11:21:38.927Z,96.99
2017-03-20T11:22:38.950Z,97.28
2017-03-20T11:23:38.678Z,96.51
2017-03-20T11:24:38.997Z,96.99
2017-03-20T11:25:39.021Z,96.99
2017-03-20T11:26:39.039Z,97.56
2017-03-20T11:27:39.066Z,97.08
2017-03-20T11:28:39.090Z,96.61
2017-03-20T11:29:39.110Z,97.28
2017-03-20T11:30:39.134Z,97.56
2017-03-20T11:31:38.853Z,95.84
2017-03-20T11:32:39.186Z,96.03
2017-03-20T11:33:39.205Z,95.36
2017-03-20T11:34:39.225Z,94.84
2017-03-20T11:35:38.945Z,94.74
2017-03-20T11:36:39.274Z,94.84
2017-03-20T11:37:39.296Z,93.31
2017-03-20T11:38:53.936Z,93.79
2017-03-20T11:39:39.343Z,92.64
2017-03-20T11:40:39.367Z,93.4
2017-03-20T11:41:39.389Z,93.12
2017-03-20T11:42:39.413Z,92.83
2017-03-20T11:43:39.443Z,93.69
2017-03-20T11:44:39.159Z,93.4
2017-03-20T11:45:39.483Z,92.93
2017-03-20T11:46:39.507Z,93.5
2017-03-20T11:47:39.535Z,93.5
2017-03-20T11:48:39.556Z,93.4
2017-03-20T11:49:39.580Z,92.93
2017-03-20T11:50:39.602Z,93.02
2017-03-20T11:52:39.344Z,93.02
2017-03-20T11:53:39.671Z,93.12
2017-03-20T11:54:54.312Z,92.93
2017-03-20T11:55:39.719Z,93.6
2017-03-20T11:56:39.743Z,92.54
2017-03-20T11:57:39.767Z,91.49
2017-03-20T11:58:39.794Z,92.45
2017-03-20T11:59:39.813Z,92.35
2017-03-20T12:00:39.833Z,92.74
2017-03-20T12:01:39.859Z,92.74
2017-03-20T12:02:39.883Z,92.35
2017-03-20T12:03:39.907Z,92.07
2017-03-20T12:04:39.930Z,91.97
2017-03-20T12:05:39.952Z,92.3
2017-03-20T12:07:40.000Z,92.88
2017-03-20T12:08:40.029Z,92.4
2017-03-20T12:09:40.093Z,92.5
2017-03-20T12:10:54.685Z,92.64
2017-03-20T12:11:39.788Z,92.79
2017-03-20T12:12:40.119Z,92.45
2017-03-20T12:13:40.142Z,92.5
2017-03-20T12:14:40.162Z,92.3
2017-03-20T12:15:40.183Z,91.88
2017-03-20T12:16:40.209Z,91.83
2017-03-20T12:17:39.932Z,91.68
2017-03-20T12:18:40.257Z,91.97
2017-03-20T12:19:40.280Z,91.49
2017-03-20T12:21:40.323Z,91.35
2017-03-20T12:23:40.069Z,91.45
2017-03-20T12:24:40.395Z,91.54
2017-03-20T12:25:40.426Z,91.11
2017-03-20T12:26:55.059Z,91.93
2017-03-20T12:27:40.472Z,91.93
2017-03-20T12:29:40.518Z,92.02
2017-03-20T12:30:40.234Z,91.93
2017-03-20T12:33:40.607Z,92.69
2017-03-20T12:34:40.675Z,92.69
2017-03-20T12:35:40.650Z,93.16
2017-03-20T12:36:40.372Z,93.55
2017-03-20T12:37:40.696Z,94.22
2017-03-20T12:38:40.720Z,93.84
2017-03-20T12:39:40.748Z,93.55
2017-03-20T12:40:40.767Z,92.97
2017-03-20T12:41:55.408Z,93.21
2017-03-20T12:42:40.816Z,93.21
2017-03-20T12:43:40.837Z,92.83
2017-03-20T12:44:40.862Z,93.6
2017-03-20T12:45:40.898Z,93.02
2017-03-20T12:46:55.524Z,91.78
2017-03-20T12:47:40.940Z,91.39
2017-03-20T12:48:40.954Z,91.78
2017-03-20T12:49:40.976Z,91.49
2017-03-20T12:50:41.011Z,91.2
2017-03-20T12:51:41.023Z,91.11
2017-03-20T12:52:41.047Z,90.63
2017-03-20T12:53:41.074Z,90.63
2017-03-20T12:55:40.813Z,92.02
2017-03-20T12:56:41.140Z,91.44
2017-03-20T12:57:41.170Z,91.83
2017-03-20T12:58:41.188Z,90.58
2017-03-20T12:59:41.211Z,90.67
2017-03-20T13:00:41.233Z,91.06
2017-03-20T13:01:41.255Z,90.77
2017-03-20T13:02:41.281Z,91.02
2017-03-20T13:03:41.309Z,91.11
2017-03-20T13:04:41.352Z,91.3
2017-03-20T13:05:41.047Z,92.25
2017-03-20T13:06:41.070Z,92.64
2017-03-20T13:07:41.398Z,92.74
2017-03-20T13:08:41.120Z,92.16
2017-03-20T13:09:41.141Z,92.5
2017-03-20T13:10:41.166Z,92.88
2017-03-20T13:11:41.490Z,93.55
2017-03-20T13:12:41.211Z,93.74
2017-03-20T13:13:56.155Z,93.36
2017-03-20T13:14:41.568Z,93.36
2017-03-20T13:15:41.284Z,93.36
2017-03-20T13:16:41.605Z,93.65
2017-03-20T13:17:41.331Z,93.93
2017-03-20T13:18:41.655Z,92.88
2017-03-20T13:19:41.678Z,93.36
2017-03-20T13:20:41.396Z,93.36
2017-03-20T13:21:41.724Z,92.88
2017-03-20T13:22:41.747Z,93.45
2017-03-20T13:23:41.770Z,93.07
2017-03-20T13:24:41.793Z,93.45
2017-03-20T13:27:41.865Z,93.88
2017-03-20T13:28:41.889Z,94.17
2017-03-20T13:29:56.527Z,92.83
2017-03-20T13:30:41.933Z,92.93
2017-03-20T13:31:41.958Z,92.35
2017-03-20T13:32:41.981Z,93.02
2017-03-20T13:33:42.252Z,93.21
2017-03-20T13:34:42.026Z,91.39
2017-03-20T13:35:42.047Z,91.39
2017-03-20T13:36:42.074Z,91.88
2017-03-20T13:37:42.098Z,91.88
2017-03-20T13:38:41.817Z,90.82
2017-03-20T13:39:42.143Z,91.39
2017-03-20T13:40:42.166Z,90.58
2017-03-20T13:41:42.188Z,90.44
2017-03-20T13:42:42.215Z,91.25
2017-03-20T13:43:42.289Z,91.06